createdAt,value
2023-07-07T00:00:25.733Z,6.03
2023-07-07T00:02:55.645Z,6.20
2023-07-07T00:05:25.526Z,5.88
2023-07-07T00:07:58.724Z,5.45
2023-07-07T00:10:28.553Z,5.07
2023-07-07T00:12:59.400Z,5.85
2023-07-07T00:15:29.345Z,5.32
2023-07-07T00:17:59.688Z,5.85
2023-07-07T00:20:30.116Z,5.22
2023-07-07T00:23:02.751Z,5.63
2023-07-07T00:25:32.462Z,4.72
2023-07-07T00:28:02.267Z,5.88
2023-07-07T00:30:32.101Z,5.68
2023-07-07T00:33:01.979Z,5.40
2023-07-07T00:35:31.774Z,5.43
2023-07-07T00:38:04.089Z,4.80
2023-07-07T00:40:33.953Z,5.35
2023-07-07T00:43:04.070Z,5.40
2023-07-07T00:45:33.781Z,4.88
2023-07-07T00:48:06.017Z,6.18
2023-07-07T00:50:38.150Z,5.47
2023-07-07T00:53:10.497Z,4.72
2023-07-07T00:55:42.475Z,5.95
2023-07-07T00:58:14.510Z,5.15
2023-07-07T01:00:46.848Z,4.65
2023-07-07T01:03:23.521Z,4.85
2023-07-07T01:05:54.554Z,5.90
2023-07-07T01:08:27.101Z,5.03
2023-07-07T01:10:57.124Z,5.35
2023-07-07T01:13:27.250Z,5.13
2023-07-07T01:16:02.004Z,4.95
2023-07-07T01:18:40.199Z,5.35
2023-07-07T01:23:59.748Z,4.70
2023-07-07T01:26:47.366Z,5.47
2023-07-07T01:29:29.926Z,5.15
2023-07-07T01:32:04.228Z,4.72
2023-07-07T01:34:34.060Z,5.22
2023-07-07T01:37:04.217Z,4.78
2023-07-07T01:39:34.119Z,5.07
2023-07-07T01:42:08.616Z,5.10
2023-07-07T01:44:42.475Z,5.03
2023-07-07T01:47:19.316Z,4.40
2023-07-07T01:52:22.661Z,4.03
2023-07-07T01:54:55.844Z,4.93
2023-07-07T01:57:26.346Z,4.57
2023-07-07T01:59:57.312Z,4.50
2023-07-07T02:02:30.252Z,4.18
2023-07-07T02:05:00.319Z,4.40
2023-07-07T02:07:30.447Z,4.47
2023-07-07T02:10:01.398Z,4.40
2023-07-07T02:12:31.313Z,4.30
2023-07-07T02:15:01.266Z,4.50
2023-07-07T02:17:33.947Z,4.65
2023-07-07T02:20:04.932Z,4.60
2023-07-07T02:22:34.869Z,4.35
2023-07-07T02:25:04.926Z,4.72
2023-07-07T02:27:34.876Z,4.80
2023-07-07T02:30:06.442Z,5.20
2023-07-07T02:32:39.062Z,4.97
2023-07-07T02:35:10.068Z,4.43
2023-07-07T02:37:40.098Z,5.00
2023-07-07T02:40:11.932Z,4.88
2023-07-07T02:42:43.053Z,6.18
2023-07-07T02:45:16.337Z,3.88
2023-07-07T02:47:50.054Z,3.78
2023-07-07T02:50:20.713Z,4.15
2023-07-07T02:52:50.773Z,4.80
2023-07-07T02:55:20.809Z,4.20
2023-07-07T02:57:52.712Z,4.05
2023-07-07T03:00:23.747Z,4.18
2023-07-07T03:02:56.378Z,5.10
2023-07-07T03:05:27.451Z,4.97
2023-07-07T03:07:57.533Z,4.60
2023-07-07T03:10:28.531Z,4.57
2023-07-07T03:13:08.667Z,4.57
2023-07-07T03:15:45.315Z,3.92
2023-07-07T03:18:27.276Z,3.40
2023-07-07T03:21:02.600Z,2.65
2023-07-07T03:23:32.631Z,2.60
2023-07-07T03:26:10.010Z,2.05
2023-07-07T03:28:40.402Z,2.22
2023-07-07T03:31:12.866Z,2.17
2023-07-07T03:33:49.338Z,3.20
2023-07-07T03:36:19.771Z,2.72
2023-07-07T03:38:49.762Z,2.58
2023-07-07T03:41:22.561Z,2.60
2023-07-07T03:43:54.618Z,2.85
2023-07-07T03:46:27.519Z,2.92
2023-07-07T03:49:01.153Z,2.95
2023-07-07T03:51:37.434Z,2.83
2023-07-07T03:54:10.382Z,3.67
2023-07-07T04:01:39.951Z,2.65
2023-07-07T04:04:12.493Z,2.97
2023-07-07T04:06:42.455Z,3.08
2023-07-07T04:09:13.606Z,3.08
2023-07-07T04:11:43.337Z,2.70
2023-07-07T04:14:13.156Z,2.90
2023-07-07T04:16:43.051Z,3.30
2023-07-07T04:19:15.494Z,3.60
2023-07-07T04:21:45.346Z,3.30
2023-07-07T04:24:15.342Z,4.00
2023-07-07T04:26:45.094Z,4.18
2023-07-07T04:29:14.840Z,3.88
2023-07-07T04:31:47.136Z,4.07
2023-07-07T04:34:19.945Z,4.43
2023-07-07T04:36:49.661Z,4.43
2023-07-07T04:39:19.405Z,4.80
2023-07-07T04:41:49.166Z,4.45
2023-07-07T04:44:18.878Z,4.82
2023-07-07T04:46:48.677Z,4.18
2023-07-07T04:49:23.086Z,4.53
2023-07-07T04:51:52.930Z,4.90
2023-07-07T04:54:22.747Z,5.43
2023-07-07T04:56:52.504Z,5.05
2023-07-07T04:59:22.297Z,6.47
2023-07-07T05:01:56.057Z,5.80
2023-07-07T05:04:30.207Z,5.50
2023-07-07T05:07:00.431Z,5.78
2023-07-07T05:09:30.498Z,6.53
2023-07-07T05:12:01.791Z,6.65
2023-07-07T05:14:32.021Z,6.32
2023-07-07T05:17:02.719Z,6.53
2023-07-07T05:19:35.487Z,6.22
2023-07-07T05:22:07.883Z,6.80
2023-07-07T05:24:40.191Z,6.57
2023-07-07T05:27:11.189Z,6.95
2023-07-07T05:29:41.434Z,6.45
2023-07-07T05:32:12.681Z,7.65
2023-07-07T05:34:46.255Z,6.88
2023-07-07T05:37:16.473Z,6.25
2023-07-07T05:39:46.798Z,6.75
2023-07-07T05:42:17.130Z,6.50
2023-07-07T05:44:47.460Z,6.88
2023-07-07T05:47:17.605Z,6.97
2023-07-07T05:49:50.941Z,6.70
2023-07-07T05:52:21.280Z,6.30
2023-07-07T05:54:52.611Z,6.75
2023-07-07T05:57:23.027Z,6.82
2023-07-07T05:59:53.115Z,6.82
2023-07-07T06:02:23.397Z,8.27
2023-07-07T06:04:56.107Z,6.70
2023-07-07T06:07:27.027Z,5.88
2023-07-07T06:09:59.383Z,6.40
2023-07-07T06:12:29.682Z,6.38
2023-07-07T06:15:00.005Z,6.95
2023-07-07T06:17:30.144Z,6.85
2023-07-07T06:20:03.269Z,7.45
2023-07-07T06:22:34.014Z,7.30
2023-07-07T06:27:34.315Z,6.30
2023-07-07T06:30:04.849Z,7.40
2023-07-07T06:32:35.587Z,6.55
2023-07-07T06:35:08.888Z,7.18
2023-07-07T06:37:39.050Z,6.20
2023-07-07T06:40:10.440Z,5.80
2023-07-07T06:42:40.991Z,6.50
2023-07-07T06:45:16.032Z,5.57
2023-07-07T06:47:46.247Z,6.20
2023-07-07T06:50:24.391Z,5.88
2023-07-07T06:52:54.613Z,6.97
2023-07-07T06:55:25.157Z,6.00
2023-07-07T06:57:55.396Z,6.82
2023-07-07T07:00:25.950Z,5.80
2023-07-07T07:02:56.159Z,6.88
2023-07-07T07:05:29.398Z,6.07
2023-07-07T07:07:59.661Z,5.15
2023-07-07T07:12:59.636Z,5.88
2023-07-07T07:15:29.922Z,5.85
2023-07-07T07:17:59.943Z,5.63
2023-07-07T07:20:33.014Z,5.80
2023-07-07T07:23:03.403Z,4.72
2023-07-07T07:25:33.641Z,5.60
2023-07-07T07:28:03.940Z,5.32
2023-07-07T07:30:34.772Z,4.88
2023-07-07T07:33:07.859Z,4.93
2023-07-07T07:35:40.683Z,5.68
2023-07-07T07:38:11.199Z,4.88
2023-07-07T07:40:41.564Z,4.85
2023-07-07T07:43:12.163Z,4.85
2023-07-07T07:45:42.702Z,5.22
2023-07-07T07:50:45.930Z,5.07
2023-07-07T07:53:15.814Z,5.10
2023-07-07T07:55:46.240Z,4.40
2023-07-07T08:00:46.389Z,4.25
2023-07-07T08:03:18.990Z,4.70
2023-07-07T08:05:51.441Z,4.40
2023-07-07T08:08:21.208Z,4.53
2023-07-07T08:11:05.816Z,4.70
2023-07-07T08:13:41.030Z,4.13
2023-07-07T08:16:12.617Z,4.20
2023-07-07T08:18:42.995Z,4.10
2023-07-07T08:21:15.395Z,4.30
2023-07-07T08:23:45.203Z,4.40
2023-07-07T08:28:49.303Z,3.50
2023-07-07T08:31:20.459Z,4.35
2023-07-07T08:33:58.316Z,3.92
2023-07-07T08:36:32.343Z,3.50
2023-07-07T08:39:05.197Z,3.50
2023-07-07T08:41:34.968Z,3.40
2023-07-07T08:44:04.749Z,3.40
2023-07-07T08:46:44.310Z,3.28
2023-07-07T08:49:18.640Z,3.65
2023-07-07T08:51:57.809Z,3.72
2023-07-07T08:54:39.634Z,3.45
2023-07-07T08:57:11.233Z,3.00
2023-07-07T08:59:46.149Z,3.05
2023-07-07T09:02:35.852Z,3.05
2023-07-07T09:05:19.385Z,4.07
2023-07-07T09:08:00.877Z,4.80
2023-07-07T09:10:40.871Z,3.38
2023-07-07T09:13:16.227Z,3.45
2023-07-07T09:16:00.330Z,3.35
2023-07-07T09:18:33.074Z,3.30
2023-07-07T09:21:06.444Z,3.75
2023-07-07T09:23:41.955Z,3.22
2023-07-07T09:26:21.234Z,2.83
2023-07-07T09:28:53.861Z,3.38
2023-07-07T09:31:29.971Z,3.25
2023-07-07T09:34:01.000Z,3.33
2023-07-07T09:36:33.650Z,2.85
2023-07-07T09:39:29.858Z,3.10
2023-07-07T09:42:08.447Z,3.15
2023-07-07T09:44:51.483Z,3.25
2023-07-07T09:47:26.247Z,3.00
2023-07-07T09:50:00.564Z,2.95
2023-07-07T09:52:40.126Z,3.47
2023-07-07T09:55:19.708Z,2.95
2023-07-07T09:57:58.338Z,3.45
2023-07-07T10:00:44.068Z,3.28
2023-07-07T10:03:21.118Z,2.83
2023-07-07T10:05:52.089Z,2.63
2023-07-07T10:08:21.901Z,3.03
2023-07-07T10:11:12.560Z,3.22
2023-07-07T10:13:50.314Z,2.78
2023-07-07T10:16:31.242Z,3.70
2023-07-07T10:19:03.105Z,3.33
2023-07-07T10:21:32.822Z,3.20
2023-07-07T10:24:05.163Z,3.30
2023-07-07T10:26:43.724Z,3.28
2023-07-07T10:29:17.394Z,2.83
2023-07-07T10:31:48.655Z,3.00
2023-07-07T10:34:36.317Z,3.88
2023-07-07T10:37:06.162Z,3.20
2023-07-07T10:39:35.913Z,2.95
2023-07-07T10:42:11.668Z,3.13
2023-07-07T10:44:41.407Z,3.40
2023-07-07T10:50:03.340Z,3.03
2023-07-07T10:55:37.192Z,3.30
2023-07-07T10:58:21.439Z,3.33
2023-07-07T11:01:01.164Z,3.85
2023-07-07T11:03:51.647Z,3.08
2023-07-07T11:06:29.794Z,3.90
2023-07-07T11:09:11.529Z,3.45
2023-07-07T11:11:48.773Z,3.22
2023-07-07T11:14:40.639Z,3.20
2023-07-07T11:17:20.245Z,3.15
2023-07-07T11:20:09.203Z,3.15
2023-07-07T11:23:09.330Z,2.97
2023-07-07T11:25:47.458Z,3.53
2023-07-07T11:28:25.861Z,2.78
2023-07-07T11:31:05.177Z,2.70
2023-07-07T11:33:43.139Z,3.22
2023-07-07T11:36:33.961Z,2.75
2023-07-07T11:39:12.588Z,3.10
2023-07-07T11:41:52.705Z,2.78
2023-07-07T11:44:32.581Z,2.97
2023-07-07T11:47:17.088Z,2.72
2023-07-07T11:50:06.607Z,3.33
2023-07-07T11:52:50.427Z,3.45
2023-07-07T11:55:31.967Z,3.67
2023-07-07T14:04:30.490Z,3.28
2023-07-07T14:07:00.326Z,3.17
2023-07-07T14:09:31.734Z,3.15
2023-07-07T14:12:02.005Z,3.15
2023-07-07T14:14:31.901Z,3.15
2023-07-07T14:17:04.484Z,3.17
2023-07-07T14:19:41.552Z,3.38
2023-07-07T14:22:13.098Z,2.85
2023-07-07T14:24:42.861Z,3.13
2023-07-07T14:27:16.294Z,2.95
2023-07-07T14:29:47.909Z,3.15
2023-07-07T14:32:21.236Z,3.47
2023-07-07T14:34:55.239Z,3.08
2023-07-07T14:37:27.109Z,3.10
2023-07-07T14:40:01.494Z,3.50
2023-07-07T14:42:32.398Z,3.10
2023-07-07T14:45:02.160Z,3.47
2023-07-07T14:47:34.031Z,3.38
2023-07-07T14:50:09.601Z,2.88
2023-07-07T14:52:41.763Z,2.90
2023-07-07T14:55:16.600Z,3.67
2023-07-07T14:57:49.317Z,3.40
2023-07-07T15:00:40.066Z,3.40
2023-07-07T15:03:41.582Z,3.10
2023-07-07T15:06:25.966Z,3.60
2023-07-07T15:08:56.564Z,3.15
2023-07-07T15:11:32.690Z,3.20
2023-07-07T15:14:05.672Z,3.05
2023-07-07T15:16:36.175Z,3.25
2023-07-07T15:19:16.247Z,3.00
2023-07-07T15:21:49.053Z,3.00
2023-07-07T15:24:19.205Z,3.40
2023-07-07T15:29:20.567Z,3.05
2023-07-07T15:31:51.530Z,3.20
2023-07-07T15:34:22.021Z,8.30
2023-07-07T15:36:54.569Z,2.83
2023-07-07T15:39:24.432Z,2.78
2023-07-07T15:41:54.392Z,3.63
2023-07-07T15:44:24.806Z,3.20
2023-07-07T15:46:54.767Z,3.00
2023-07-07T15:49:24.647Z,3.40
2023-07-07T15:51:59.434Z,3.33
2023-07-07T15:54:29.317Z,3.15
2023-07-07T15:56:59.222Z,3.42
2023-07-07T15:59:29.143Z,3.35
2023-07-07T16:01:59.800Z,3.00
2023-07-07T16:04:29.814Z,3.00
2023-07-07T16:09:32.588Z,3.00
2023-07-07T16:12:04.117Z,3.30
2023-07-07T16:14:34.160Z,3.38
2023-07-07T16:17:04.193Z,2.78
2023-07-07T16:19:37.208Z,3.33
2023-07-07T16:22:12.430Z,2.97
2023-07-07T16:24:42.251Z,3.10
2023-07-07T16:27:17.596Z,3.40
2023-07-07T16:29:48.332Z,3.00
2023-07-07T16:32:18.205Z,3.47
2023-07-07T16:34:48.222Z,3.25
2023-07-07T16:37:23.254Z,3.55
2023-07-07T16:39:53.107Z,3.08
2023-07-07T16:42:23.179Z,3.30
2023-07-07T16:44:53.098Z,3.40
2023-07-07T16:47:23.089Z,3.25
2023-07-07T16:52:26.005Z,3.05
2023-07-07T16:54:55.887Z,3.13
2023-07-07T16:57:25.989Z,3.92
2023-07-07T17:02:25.775Z,3.53
2023-07-07T17:04:55.822Z,3.35
2023-07-07T17:07:28.232Z,3.15
2023-07-07T17:09:58.220Z,3.10
2023-07-07T17:12:28.209Z,3.55
2023-07-07T17:14:58.078Z,3.30
2023-07-07T17:17:28.121Z,3.53
2023-07-07T17:19:58.098Z,3.58
2023-07-07T17:22:30.640Z,3.50
2023-07-07T17:25:00.588Z,3.60
2023-07-07T17:27:30.440Z,3.30
2023-07-07T17:30:00.372Z,3.60
2023-07-07T17:32:30.288Z,3.58
2023-07-07T17:35:00.437Z,3.90
2023-07-07T17:37:32.998Z,4.00
2023-07-07T17:40:02.914Z,3.83
2023-07-07T17:42:32.812Z,3.65
2023-07-07T17:45:03.395Z,3.78
2023-07-07T17:47:33.590Z,3.50
2023-07-07T17:52:37.313Z,3.75
2023-07-07T17:55:07.881Z,4.10
2023-07-07T17:57:38.072Z,4.30
2023-07-07T18:02:43.257Z,3.80
2023-07-07T18:05:13.261Z,3.50
2023-07-07T18:07:45.816Z,3.78
2023-07-07T18:10:17.670Z,3.78
2023-07-07T18:12:47.592Z,3.50
2023-07-07T18:15:17.583Z,3.88
2023-07-07T18:17:59.261Z,3.60
2023-07-07T18:20:52.577Z,3.78
2023-07-07T18:23:31.725Z,3.85
2023-07-07T18:26:02.356Z,4.50
2023-07-07T18:28:32.295Z,3.58
2023-07-07T18:31:02.704Z,3.58
2023-07-07T18:33:32.823Z,3.95
2023-07-07T18:36:02.725Z,3.95
2023-07-07T18:38:35.384Z,3.45
2023-07-07T18:41:05.321Z,3.90
2023-07-07T18:43:35.223Z,3.67
2023-07-07T18:46:05.158Z,3.70
2023-07-07T18:48:35.058Z,3.40
2023-07-07T18:51:04.932Z,3.22
2023-07-07T18:53:37.838Z,3.97
2023-07-07T18:56:16.165Z,3.88
2023-07-07T18:58:46.508Z,3.83
2023-07-07T19:01:18.946Z,3.30
2023-07-07T19:03:49.326Z,3.67
2023-07-07T19:06:23.280Z,4.07
2023-07-07T19:08:56.125Z,3.63
2023-07-07T19:11:25.975Z,3.90
2023-07-07T19:13:55.844Z,3.88
2023-07-07T19:16:27.830Z,3.55
2023-07-07T19:18:59.497Z,3.92
2023-07-07T19:21:30.867Z,3.75
2023-07-07T19:24:04.957Z,3.53
2023-07-07T19:26:36.785Z,3.42
2023-07-07T19:29:08.406Z,3.92
2023-07-07T19:31:38.400Z,3.92
2023-07-07T19:34:08.684Z,3.50
2023-07-07T19:36:41.394Z,4.20
2023-07-07T19:39:19.531Z,4.47
2023-07-07T19:41:51.054Z,3.80
2023-07-07T19:44:21.160Z,3.95
2023-07-07T19:46:53.342Z,3.70
2023-07-07T19:49:25.658Z,3.90
2023-07-07T19:51:56.314Z,3.72
2023-07-07T19:54:29.742Z,3.92
2023-07-07T19:56:59.564Z,3.70
2023-07-07T19:59:29.401Z,4.05
2023-07-07T20:01:59.364Z,3.67
2023-07-07T20:04:29.264Z,3.95
2023-07-07T20:07:03.678Z,3.42
2023-07-07T20:09:35.998Z,3.95
2023-07-07T20:12:06.430Z,3.60
2023-07-07T20:17:05.955Z,4.35
2023-07-07T20:19:35.657Z,4.13
2023-07-07T20:22:05.315Z,4.03
2023-07-07T20:24:37.999Z,3.85
2023-07-07T20:27:11.752Z,3.80
2023-07-07T20:29:41.526Z,4.05
2023-07-07T20:32:16.417Z,4.50
2023-07-07T20:34:48.190Z,4.40
2023-07-07T20:37:17.921Z,3.92
2023-07-07T20:39:50.563Z,4.60
2023-07-07T20:42:20.314Z,3.72
2023-07-07T20:44:50.055Z,4.18
2023-07-07T20:47:19.762Z,4.20
2023-07-07T20:49:49.795Z,4.20
2023-07-07T20:52:19.580Z,4.35
2023-07-07T20:54:51.832Z,4.10
2023-07-07T20:57:21.539Z,4.45
2023-07-07T20:59:51.703Z,3.67
2023-07-07T21:02:25.569Z,3.75
2023-07-07T21:04:55.333Z,4.38
2023-07-07T21:07:25.070Z,4.43
2023-07-07T21:09:57.705Z,4.30
2023-07-07T21:12:27.474Z,4.53
2023-07-07T21:14:57.157Z,5.25
2023-07-07T21:17:26.932Z,4.20
2023-07-07T21:19:56.713Z,4.57
2023-07-07T21:22:26.498Z,4.47
2023-07-07T21:24:58.821Z,4.47
2023-07-07T21:27:28.717Z,4.05
2023-07-07T21:29:58.396Z,3.90
2023-07-07T21:32:28.137Z,4.10
2023-07-07T21:34:57.836Z,4.28
2023-07-07T21:37:27.574Z,3.97
2023-07-07T21:39:59.846Z,4.35
2023-07-07T21:42:29.575Z,6.90
2023-07-07T21:44:59.289Z,5.45
2023-07-07T21:47:28.995Z,4.40
2023-07-07T21:49:58.743Z,4.78
2023-07-07T21:52:28.561Z,4.32
2023-07-07T21:55:00.871Z,6.65
2023-07-07T21:57:40.585Z,4.15
2023-07-07T22:00:15.709Z,8.27
2023-07-07T22:02:45.809Z,5.45
2023-07-07T22:05:16.721Z,4.70
2023-07-07T22:07:47.149Z,5.18
2023-07-07T22:12:57.039Z,4.70
2023-07-07T22:15:27.093Z,4.18
2023-07-07T22:17:56.853Z,4.38
2023-07-07T22:20:35.257Z,4.93
2023-07-07T22:23:06.303Z,4.85
2023-07-07T22:25:40.651Z,5.20
2023-07-07T22:28:17.849Z,8.07
2023-07-07T22:30:50.032Z,9.20
2023-07-07T22:33:19.988Z,7.10
2023-07-07T22:35:50.059Z,8.77
2023-07-07T22:38:21.821Z,5.90
2023-07-07T22:40:57.263Z,13.25
2023-07-07T22:43:27.452Z,8.02
2023-07-07T22:45:58.539Z,6.95
2023-07-07T22:48:28.806Z,5.78
2023-07-07T22:50:59.777Z,5.82
2023-07-07T22:53:29.744Z,20.80
2023-07-07T22:56:02.399Z,16.65
2023-07-07T22:58:32.150Z,5.65
2023-07-07T23:01:03.799Z,5.53
2023-07-07T23:03:33.891Z,4.70
2023-07-07T23:06:03.649Z,5.00
2023-07-07T23:08:33.352Z,19.00
2023-07-07T23:11:05.802Z,10.48
2023-07-07T23:13:35.556Z,16.80
2023-07-07T23:16:05.429Z,14.20
2023-07-07T23:18:39.174Z,14.38
2023-07-07T23:21:13.383Z,13.18
2023-07-07T23:23:43.244Z,13.40
2023-07-07T23:26:22.161Z,19.23
2023-07-07T23:28:51.856Z,12.88
2023-07-07T23:31:22.173Z,8.02
2023-07-07T23:33:51.916Z,10.63
2023-07-07T23:36:32.608Z,18.33
2023-07-07T23:39:03.070Z,12.75
2023-07-07T23:41:35.395Z,9.43
2023-07-07T23:44:05.239Z,8.43
2023-07-07T23:46:35.636Z,6.55
2023-07-07T23:51:35.201Z,5.65
2023-07-07T23:54:04.873Z,6.90
2023-07-07T23:56:37.231Z,10.98
2023-07-07T23:59:11.764Z,7.47
